Epping, New Hampshire
Current Conditions -  °F | °C
As of 7:58 PM on Saturday 25 Oct 2014 (Local Time) from KPSM Reporting Station
Broken Clouds Broken Clouds  
Wind Chill: 55°   Ceiling: 25000
Heat Index: 55°   Visibility: 10mi
Dew Point: 42°   Wind: 2mph
Humidity: 60%   Direction: 250°WSW
Pressure: 29.54"   Gusts: NA
Location:  43.04°N, 71.08°W
Report Text: KPSM 252358Z 25002KT 10SM FEW060 SCT100 BKN250 13/05 A2954 RMK AO2A SLP007 T01300054 10191 20128 58001
Loading
Personal Weather Stations






























Interactive Weather Map
Tropical Storm Tracking
New forecast layout! Learn more

10-Day Weather Forecast

Advertisements
Track Severe Weather on mobile